createdAt,value
2023-04-09T00:01:12.496Z,2.15
2023-04-09T00:03:43.480Z,2.28
2023-04-09T00:06:12.569Z,2.13
2023-04-09T00:08:40.072Z,2.40
2023-04-09T00:11:07.484Z,2.40
2023-04-09T00:13:39.735Z,2.42
2023-04-09T00:16:08.825Z,2.42
2023-04-09T00:18:36.630Z,2.70
2023-04-09T00:21:04.191Z,1.97
2023-04-09T00:23:31.734Z,2.72
2023-04-09T00:25:59.255Z,2.38
2023-04-09T00:28:26.709Z,2.20
2023-04-09T00:30:54.074Z,2.50
2023-04-09T00:33:21.536Z,1.83
2023-04-09T00:35:49.068Z,2.25
2023-04-09T00:38:16.867Z,2.50
2023-04-09T00:40:44.328Z,2.33
2023-04-09T00:43:12.669Z,2.43
2023-04-09T00:45:40.111Z,2.20
2023-04-09T00:48:07.847Z,2.20
2023-04-09T00:50:35.593Z,2.60
2023-04-09T00:53:03.118Z,2.40
2023-04-09T00:55:31.124Z,2.50
2023-04-09T00:57:58.518Z,2.10
2023-04-09T01:00:26.739Z,2.10
2023-04-09T01:02:56.492Z,2.30
2023-04-09T01:05:34.366Z,2.10
2023-04-09T01:08:22.624Z,2.55
2023-04-09T01:11:15.608Z,2.10
2023-04-09T01:13:56.399Z,2.13
2023-04-09T01:16:24.813Z,2.10
2023-04-09T01:18:59.929Z,1.60
2023-04-09T01:21:32.760Z,1.90
2023-04-09T01:24:09.792Z,2.00
2023-04-09T01:27:01.724Z,2.00
2023-04-09T01:29:33.022Z,2.03
2023-04-09T01:32:03.289Z,2.20
2023-04-09T01:34:31.700Z,2.10
2023-04-09T01:37:02.578Z,2.10
2023-04-09T01:39:30.774Z,2.77
2023-04-09T01:41:58.279Z,2.40
2023-04-09T01:44:27.118Z,2.23
2023-04-09T01:46:56.087Z,2.30
2023-04-09T01:49:23.545Z,2.07
2023-04-09T01:51:52.119Z,2.20
2023-04-09T01:54:19.607Z,2.30
2023-04-09T01:56:48.588Z,2.00
2023-04-09T01:59:16.586Z,2.17
2023-04-09T02:02:05.879Z,2.00
2023-04-09T02:04:36.990Z,2.10
2023-04-09T02:07:11.376Z,2.00
2023-04-09T02:09:41.456Z,2.33
2023-04-09T02:12:13.836Z,2.27
2023-04-09T02:14:42.852Z,2.30
2023-04-09T02:17:10.493Z,2.53
2023-04-09T02:19:45.710Z,2.30
2023-04-09T02:22:13.920Z,2.30
2023-04-09T02:24:41.599Z,2.10
2023-04-09T02:27:09.350Z,2.10
2023-04-09T02:29:36.785Z,1.80
2023-04-09T02:32:04.402Z,2.10
2023-04-09T02:34:31.845Z,2.13
2023-04-09T02:36:59.144Z,2.47
2023-04-09T02:39:27.379Z,2.33
2023-04-09T02:41:54.847Z,2.27
2023-04-09T02:44:22.548Z,2.10
2023-04-09T02:46:52.725Z,2.20
2023-04-09T02:49:20.112Z,2.00
2023-04-09T02:51:47.409Z,2.10
2023-04-09T02:54:15.123Z,2.10
2023-04-09T02:56:42.704Z,2.07
2023-04-09T02:59:10.107Z,2.07
2023-04-09T03:01:37.512Z,2.03
2023-04-09T03:04:05.076Z,2.00
2023-04-09T03:06:32.881Z,2.27
2023-04-09T03:09:00.333Z,2.00
2023-04-09T03:11:27.809Z,2.30
2023-04-09T03:13:55.216Z,2.63
2023-04-09T03:16:25.138Z,2.33
2023-04-09T03:18:52.888Z,2.20
2023-04-09T03:21:21.204Z,2.30
2023-04-09T03:23:48.688Z,2.27
2023-04-09T03:26:16.537Z,2.07
2023-04-09T03:28:43.985Z,2.03
2023-04-09T03:31:11.491Z,2.17
2023-04-09T03:33:38.869Z,2.10
2023-04-09T03:36:06.635Z,1.93
2023-04-09T03:38:34.096Z,2.10
2023-04-09T03:41:01.480Z,1.87
2023-04-09T03:43:28.929Z,1.90
2023-04-09T03:45:56.387Z,2.20
2023-04-09T03:48:23.862Z,2.00
2023-04-09T03:50:53.795Z,2.17
2023-04-09T03:53:21.316Z,2.10
2023-04-09T03:55:48.728Z,2.13
2023-04-09T03:58:16.147Z,2.20
2023-04-09T04:00:43.784Z,2.00
2023-04-09T04:03:12.395Z,2.30
2023-04-09T04:05:39.922Z,1.50
2023-04-09T04:08:07.291Z,1.73
2023-04-09T04:10:35.303Z,2.20
2023-04-09T04:13:03.110Z,2.03
2023-04-09T04:15:30.880Z,1.90
2023-04-09T04:17:59.647Z,2.20
2023-04-09T04:20:27.115Z,1.77
2023-04-09T04:22:54.453Z,2.00
2023-04-09T04:25:21.839Z,2.00
2023-04-09T04:27:49.164Z,2.23
2023-04-09T04:30:16.611Z,1.83
2023-04-09T04:32:44.042Z,2.33
2023-04-09T04:35:11.414Z,2.27
2023-04-09T04:37:38.713Z,2.33
2023-04-09T04:40:07.050Z,2.40
2023-04-09T04:42:34.999Z,1.87
2023-04-09T04:45:02.338Z,1.77
2023-04-09T04:47:29.694Z,2.10
2023-04-09T04:49:57.033Z,2.00
2023-04-09T04:52:24.545Z,2.17
2023-04-09T04:54:51.965Z,2.10
2023-04-09T04:57:19.420Z,2.23
2023-04-09T04:59:46.922Z,2.40
2023-04-09T05:02:14.382Z,2.33
2023-04-09T05:04:42.184Z,2.53
2023-04-09T05:07:09.506Z,2.40
2023-04-09T05:09:36.824Z,2.50
2023-04-09T05:12:04.581Z,2.40
2023-04-09T05:14:32.072Z,2.40
2023-04-09T05:16:59.901Z,2.13
2023-04-09T05:19:27.525Z,2.60
2023-04-09T05:21:54.978Z,2.20
2023-04-09T05:24:22.597Z,2.50
2023-04-09T05:26:50.554Z,2.50
2023-04-09T05:29:17.969Z,2.60
2023-04-09T05:31:45.493Z,2.10
2023-04-09T05:34:13.019Z,2.40
2023-04-09T05:36:40.651Z,2.20
2023-04-09T05:39:08.065Z,1.17
2023-04-09T05:41:37.453Z,2.53
2023-04-09T05:44:04.946Z,2.20
2023-04-09T05:46:32.489Z,2.37
2023-04-09T05:48:59.843Z,1.95
2023-04-09T05:51:27.481Z,2.20
2023-04-09T05:53:54.951Z,2.58
2023-04-09T05:56:25.311Z,1.88
2023-04-09T05:58:52.846Z,2.35
2023-04-09T06:01:21.214Z,2.00
2023-04-09T06:03:48.656Z,2.30
2023-04-09T06:06:17.549Z,2.20
2023-04-09T06:08:45.464Z,2.58
2023-04-09T06:11:13.414Z,2.10
2023-04-09T06:13:41.583Z,2.30
2023-04-09T06:16:09.810Z,1.90
2023-04-09T06:18:37.791Z,2.30
2023-04-09T06:21:09.741Z,2.13
2023-04-09T06:23:37.362Z,2.10
2023-04-09T06:26:04.792Z,2.22
2023-04-09T06:28:33.589Z,2.33
2023-04-09T06:31:01.233Z,1.83
2023-04-09T06:33:28.572Z,2.00
2023-04-09T06:35:56.401Z,2.00
2023-04-09T06:38:23.713Z,2.10
2023-04-09T06:40:52.132Z,1.83
2023-04-09T06:43:19.582Z,2.00
2023-04-09T06:45:47.522Z,2.20
2023-04-09T06:48:14.827Z,2.00
2023-04-09T06:50:42.153Z,1.85
2023-04-09T06:53:09.459Z,1.92
2023-04-09T06:55:36.819Z,1.65
2023-04-09T06:58:04.349Z,2.05
2023-04-09T07:00:32.198Z,1.90
2023-04-09T07:02:59.936Z,2.05
2023-04-09T07:05:27.635Z,2.20
2023-04-09T07:07:55.033Z,1.98
2023-04-09T07:10:22.485Z,1.75
2023-04-09T07:12:49.879Z,1.52
2023-04-09T07:15:17.314Z,1.77
2023-04-09T07:17:44.875Z,1.70
2023-04-09T07:20:12.487Z,1.50
2023-04-09T07:22:39.867Z,1.92
2023-04-09T07:25:07.942Z,1.60
2023-04-09T07:27:35.957Z,1.75
2023-04-09T07:30:03.862Z,1.60
2023-04-09T07:32:31.457Z,1.65
2023-04-09T07:34:59.628Z,1.60
2023-04-09T07:37:27.422Z,1.70
2023-04-09T07:39:54.966Z,1.40
2023-04-09T07:42:22.591Z,1.60
2023-04-09T07:44:50.010Z,1.80
2023-04-09T07:47:17.400Z,1.40
2023-04-09T07:49:44.814Z,1.73
2023-04-09T07:52:12.191Z,1.40
2023-04-09T07:54:39.491Z,1.60
2023-04-09T07:57:07.065Z,1.50
2023-04-09T07:59:35.263Z,1.40
2023-04-09T08:02:02.985Z,1.30
2023-04-09T08:04:30.787Z,1.50
2023-04-09T08:06:58.267Z,1.27
2023-04-09T08:09:25.752Z,1.15
2023-04-09T08:11:53.434Z,1.60
2023-04-09T08:14:21.398Z,1.45
2023-04-09T08:16:50.561Z,1.27
2023-04-09T08:19:20.197Z,1.20
2023-04-09T08:21:50.546Z,1.42
2023-04-09T08:24:18.411Z,1.52
2023-04-09T08:26:46.201Z,1.70
2023-04-09T08:29:15.055Z,1.40
2023-04-09T08:31:43.144Z,1.25
2023-04-09T08:34:10.693Z,1.80
2023-04-09T08:36:38.450Z,1.45
2023-04-09T08:39:05.784Z,1.52
2023-04-09T08:41:34.517Z,1.52
2023-04-09T08:44:02.123Z,1.80
2023-04-09T08:46:29.483Z,1.63
2023-04-09T08:48:57.355Z,1.70
2023-04-09T08:51:25.758Z,1.40
2023-04-09T08:53:57.634Z,1.45
2023-04-09T08:56:26.567Z,1.40
2023-04-09T08:58:55.411Z,1.80
2023-04-09T09:01:27.736Z,1.70
2023-04-09T09:04:06.855Z,1.83
2023-04-09T09:06:38.933Z,1.48
2023-04-09T09:09:16.695Z,1.50
2023-04-09T09:11:50.310Z,1.65
2023-04-09T09:14:19.472Z,1.65
2023-04-09T09:16:56.169Z,1.90
2023-04-09T09:19:26.956Z,1.70
2023-04-09T09:22:02.096Z,1.60
2023-04-09T09:24:30.544Z,1.60
2023-04-09T09:26:59.026Z,1.63
2023-04-09T09:29:28.613Z,1.63
2023-04-09T09:31:56.774Z,1.83
2023-04-09T09:34:26.228Z,2.08
2023-04-09T09:36:53.734Z,1.88
2023-04-09T09:39:22.348Z,1.77
2023-04-09T09:42:08.007Z,1.80
2023-04-09T09:44:35.355Z,1.80
2023-04-09T09:47:05.010Z,1.77
2023-04-09T09:49:32.328Z,1.85
2023-04-09T09:52:03.051Z,1.73
2023-04-09T09:54:40.530Z,1.80
2023-04-09T09:57:10.275Z,1.80
2023-04-09T09:59:39.969Z,1.73
2023-04-09T10:02:19.175Z,1.52
2023-04-09T10:04:49.008Z,1.77
2023-04-09T10:07:16.669Z,1.80
2023-04-09T10:09:53.058Z,1.60
2023-04-09T10:12:25.133Z,1.50
2023-04-09T10:14:53.273Z,1.90
2023-04-09T10:17:21.911Z,1.83
2023-04-09T10:20:20.931Z,1.70
2023-04-09T10:22:51.181Z,2.20
2023-04-09T10:25:19.058Z,1.83
2023-04-09T10:27:49.228Z,2.15
2023-04-09T10:30:37.318Z,2.33
2023-04-09T10:33:17.590Z,2.08
2023-04-09T10:35:47.970Z,2.00
2023-04-09T10:38:15.732Z,2.00
2023-04-09T10:40:51.551Z,2.60
2023-04-09T10:43:23.723Z,2.13
2023-04-09T10:45:54.547Z,1.90
2023-04-09T10:48:26.268Z,1.77
2023-04-09T10:50:53.588Z,2.10
2023-04-09T10:53:25.811Z,1.90
2023-04-09T10:55:54.272Z,1.90
2023-04-09T10:58:21.756Z,2.05
2023-04-09T11:00:50.975Z,1.88
2023-04-09T11:03:27.772Z,2.20
2023-04-09T11:06:02.543Z,2.15
2023-04-09T11:08:33.920Z,2.10
2023-04-09T11:11:02.555Z,1.90
2023-04-09T11:13:31.724Z,1.73
2023-04-09T11:16:01.613Z,2.20
2023-04-09T11:18:30.550Z,1.88
2023-04-09T11:20:59.905Z,1.90
2023-04-09T11:23:27.843Z,1.58
2023-04-09T11:25:56.217Z,2.28
2023-04-09T11:28:24.398Z,1.52
2023-04-09T11:30:52.435Z,1.75
2023-04-09T11:33:20.571Z,1.85
2023-04-09T11:35:49.075Z,1.70
2023-04-09T11:38:16.836Z,1.80
2023-04-09T11:40:51.681Z,1.48
2023-04-09T11:43:21.241Z,1.65
2023-04-09T11:45:49.242Z,1.73
2023-04-09T11:48:18.704Z,1.60
2023-04-09T11:50:47.529Z,1.73
2023-04-09T11:53:21.178Z,1.63
2023-04-09T11:55:51.538Z,1.90
2023-04-09T11:58:22.290Z,1.85
2023-04-09T12:00:52.530Z,1.92
2023-04-09T12:03:27.544Z,1.80
2023-04-09T12:05:55.270Z,1.60
2023-04-09T12:08:25.496Z,2.00
2023-04-09T12:10:54.128Z,1.50
2023-04-09T12:13:22.075Z,1.45
2023-04-09T12:15:50.218Z,1.52
2023-04-09T12:18:18.942Z,1.48
2023-04-09T12:20:49.755Z,1.75
2023-04-09T12:23:17.346Z,1.40
2023-04-09T12:25:45.747Z,1.50
2023-04-09T12:28:18.757Z,1.80
2023-04-09T12:30:47.120Z,1.50
2023-04-09T12:33:14.607Z,1.95
2023-04-09T12:35:42.250Z,1.83
2023-04-09T12:38:09.684Z,1.70
2023-04-09T12:40:37.309Z,1.70
2023-04-09T12:43:05.494Z,1.95
2023-04-09T12:45:33.841Z,1.80
2023-04-09T12:48:01.613Z,1.85
2023-04-09T12:50:29.184Z,1.75
2023-04-09T12:52:56.614Z,1.98
2023-04-09T12:55:24.116Z,1.63
2023-04-09T12:57:52.093Z,2.13
2023-04-09T13:00:19.647Z,1.80
2023-04-09T13:02:51.724Z,1.98
2023-04-09T13:05:19.135Z,1.88
2023-04-09T13:07:47.059Z,2.00
2023-04-09T13:10:14.405Z,2.38
2023-04-09T13:12:41.762Z,1.80
2023-04-09T13:15:09.481Z,2.05
2023-04-09T13:17:36.890Z,1.83
2023-04-09T13:20:04.870Z,1.63
2023-04-09T13:22:32.381Z,1.50
2023-04-09T13:24:59.808Z,1.73
2023-04-09T13:27:30.109Z,1.65
2023-04-09T13:29:57.588Z,1.63
2023-04-09T13:32:25.081Z,1.77
2023-04-09T13:34:54.251Z,1.80
2023-04-09T13:37:21.639Z,1.70
2023-04-09T13:39:50.614Z,1.90
2023-04-09T13:42:18.554Z,1.80
2023-04-09T13:44:45.972Z,1.73
2023-04-09T13:47:14.118Z,1.70
2023-04-09T13:49:42.046Z,1.90
2023-04-09T13:52:10.781Z,1.63
2023-04-09T13:54:38.331Z,1.73
2023-04-09T13:57:05.805Z,1.73
2023-04-09T13:59:33.176Z,1.70
2023-04-09T14:02:00.998Z,2.45
2023-04-09T14:04:28.440Z,1.63
2023-04-09T14:06:57.285Z,1.60
2023-04-09T14:09:24.817Z,1.67
2023-04-09T14:11:52.231Z,1.63
2023-04-09T14:14:20.009Z,1.45
2023-04-09T14:16:48.589Z,1.45
2023-04-09T14:19:16.051Z,1.77
2023-04-09T14:21:43.563Z,1.65
2023-04-09T14:24:11.131Z,1.80
2023-04-09T14:26:38.443Z,1.48
2023-04-09T14:29:05.784Z,1.35
2023-04-09T14:31:33.194Z,1.88
2023-04-09T14:34:00.725Z,1.60
2023-04-09T14:36:28.167Z,1.63
2023-04-09T14:38:57.777Z,1.65
2023-04-09T14:41:26.260Z,2.00
2023-04-09T14:43:53.600Z,1.40
2023-04-09T14:46:22.298Z,1.80
2023-04-09T14:48:49.759Z,1.98
2023-04-09T14:51:17.661Z,1.52
2023-04-09T14:53:45.059Z,1.90
2023-04-09T14:56:12.452Z,1.58
2023-04-09T14:58:40.171Z,1.55
2023-04-09T15:01:07.764Z,1.80
2023-04-09T15:03:35.421Z,2.00
2023-04-09T15:06:03.221Z,1.70
2023-04-09T15:08:30.680Z,1.60
2023-04-09T15:10:57.981Z,1.58
2023-04-09T15:13:25.438Z,1.63
2023-04-09T15:15:53.061Z,1.48
2023-04-09T15:18:21.835Z,1.70
2023-04-09T15:20:49.465Z,2.08
2023-04-09T15:23:16.950Z,1.70
2023-04-09T15:25:44.346Z,2.05
2023-04-09T15:28:11.855Z,1.60
2023-04-09T15:30:39.472Z,2.00
2023-04-09T15:33:06.893Z,1.95
2023-04-09T15:35:35.173Z,1.90
2023-04-09T15:38:02.607Z,1.58
2023-04-09T15:40:31.209Z,1.75
2023-04-09T15:42:58.569Z,2.10
2023-04-09T15:45:26.679Z,3.42
2023-04-09T15:47:54.301Z,1.90
2023-04-09T15:50:21.926Z,1.80
2023-04-09T15:52:49.313Z,1.80
2023-04-09T15:55:17.040Z,1.67
2023-04-09T15:57:47.091Z,1.92
2023-04-09T16:00:15.556Z,1.85
2023-04-09T16:02:43.343Z,1.65
2023-04-09T16:05:10.700Z,2.20
2023-04-09T16:07:39.735Z,1.63
2023-04-09T16:10:07.881Z,1.92
2023-04-09T16:12:35.444Z,1.70
2023-04-09T16:15:03.267Z,2.00
2023-04-09T16:17:31.070Z,2.30
2023-04-09T16:19:58.574Z,1.95
2023-04-09T16:22:26.712Z,1.80
2023-04-09T16:24:54.275Z,1.80
2023-04-09T16:27:22.187Z,1.88
2023-04-09T16:29:50.195Z,2.22
2023-04-09T16:32:18.000Z,1.88
2023-04-09T16:34:46.076Z,2.15
2023-04-09T16:37:14.009Z,1.75
2023-04-09T16:39:42.076Z,2.20
2023-04-09T16:42:11.158Z,2.17
2023-04-09T16:44:38.950Z,1.83
2023-04-09T16:47:08.347Z,2.00
2023-04-09T16:49:36.173Z,1.90
2023-04-09T16:52:03.787Z,1.98
2023-04-09T16:54:31.404Z,1.85
2023-04-09T16:56:59.075Z,1.88
2023-04-09T16:59:26.710Z,1.88
2023-04-09T17:01:54.588Z,1.98
2023-04-09T17:04:23.172Z,1.83
2023-04-09T17:06:50.458Z,1.98
2023-04-09T17:09:17.748Z,1.73
2023-04-09T17:11:45.037Z,1.80
2023-04-09T17:14:12.546Z,2.08
2023-04-09T17:16:40.143Z,1.60
2023-04-09T17:19:08.966Z,1.90
2023-04-09T17:21:36.604Z,2.33
2023-04-09T17:24:04.157Z,2.13
2023-04-09T17:26:32.171Z,2.40
2023-04-09T17:28:59.549Z,2.28
2023-04-09T17:31:27.804Z,2.50
2023-04-09T17:33:55.453Z,2.40
2023-04-09T17:36:23.761Z,1.88
2023-04-09T17:38:53.236Z,1.80
2023-04-09T17:41:20.793Z,2.13
2023-04-09T17:43:48.328Z,1.77
2023-04-09T17:46:17.187Z,2.67
2023-04-09T17:48:44.928Z,2.25
2023-04-09T17:51:18.885Z,2.38
2023-04-09T17:53:47.641Z,2.80
2023-04-09T17:56:18.408Z,2.05
2023-04-09T17:58:46.987Z,2.40
2023-04-09T18:01:14.994Z,2.30
2023-04-09T18:03:43.106Z,2.00
2023-04-09T18:06:10.872Z,2.20
2023-04-09T18:08:38.272Z,2.28
2023-04-09T18:11:12.863Z,2.50
2023-04-09T18:13:41.508Z,2.22
2023-04-09T18:16:12.808Z,2.42
2023-04-09T18:18:40.793Z,2.20
2023-04-09T18:21:08.357Z,2.50
2023-04-09T18:23:35.904Z,2.50
2023-04-09T18:26:03.399Z,2.90
2023-04-09T18:28:30.781Z,2.60
2023-04-09T18:30:58.958Z,3.15
2023-04-09T18:33:27.218Z,3.05
2023-04-09T18:35:54.591Z,2.70
2023-04-09T18:38:22.100Z,3.00
2023-04-09T18:40:49.575Z,3.10
2023-04-09T18:43:16.919Z,2.92
2023-04-09T18:45:44.277Z,2.90
2023-04-09T18:48:11.598Z,3.08
2023-04-09T18:50:39.021Z,2.97
2023-04-09T18:53:07.281Z,2.80
2023-04-09T18:55:38.376Z,2.63
2023-04-09T18:58:12.861Z,2.72
2023-04-09T19:00:40.968Z,2.50
2023-04-09T19:03:08.823Z,2.70
2023-04-09T19:05:36.502Z,2.60
2023-04-09T19:08:06.964Z,2.42
2023-04-09T19:10:34.334Z,2.20
2023-04-09T19:13:02.210Z,2.90
2023-04-09T19:15:29.786Z,3.22
2023-04-09T19:17:57.704Z,2.40
2023-04-09T19:20:25.125Z,3.85
2023-04-09T19:22:57.488Z,3.65
2023-04-09T19:25:25.077Z,3.13
2023-04-09T19:27:54.261Z,3.70
2023-04-09T19:30:21.902Z,3.20
2023-04-09T19:32:49.582Z,3.05
2023-04-09T19:35:17.055Z,3.75
2023-04-09T19:37:45.048Z,2.97
2023-04-09T19:40:15.713Z,2.58
2023-04-09T19:42:43.149Z,3.10
2023-04-09T19:45:11.153Z,2.60
2023-04-09T19:47:38.823Z,3.25
2023-04-09T19:50:07.211Z,3.35
2023-04-09T19:52:34.579Z,5.55
2023-04-09T19:55:05.102Z,2.90
2023-04-09T19:57:32.826Z,2.83
2023-04-09T20:00:00.292Z,2.97
2023-04-09T20:02:28.340Z,4.40
2023-04-09T20:04:56.131Z,3.55
2023-04-09T20:07:23.446Z,3.72
2023-04-09T20:09:50.975Z,3.08
2023-04-09T20:12:19.423Z,2.50
2023-04-09T20:14:47.172Z,3.15
2023-04-09T20:17:14.627Z,2.67
2023-04-09T20:19:42.143Z,2.58
2023-04-09T20:22:09.447Z,2.55
2023-04-09T20:24:37.168Z,2.47
2023-04-09T20:27:05.045Z,3.15
2023-04-09T20:29:32.343Z,4.53
2023-04-09T20:31:59.771Z,4.07
2023-04-09T20:34:27.567Z,2.90
2023-04-09T20:36:55.627Z,2.65
2023-04-09T20:39:26.846Z,2.00
2023-04-09T20:41:55.332Z,2.95
2023-04-09T20:44:24.669Z,3.70
2023-04-09T20:46:52.759Z,3.85
2023-04-09T20:49:20.448Z,3.90
2023-04-09T20:51:47.878Z,3.28
2023-04-09T20:54:18.061Z,3.65
2023-04-09T20:56:45.551Z,3.45
2023-04-09T20:59:12.860Z,3.65
2023-04-09T21:01:40.468Z,3.10
2023-04-09T21:04:08.937Z,3.95
2023-04-09T21:06:36.430Z,3.47
2023-04-09T21:09:03.867Z,3.80
2023-04-09T21:11:31.334Z,3.33
2023-04-09T21:13:59.228Z,2.88
2023-04-09T21:16:28.730Z,3.00
2023-04-09T21:18:56.587Z,3.67
2023-04-09T21:21:24.274Z,3.38
2023-04-09T21:23:51.736Z,3.30
2023-04-09T21:26:19.143Z,2.80
2023-04-09T21:28:48.376Z,2.70
2023-04-09T21:31:16.120Z,2.92
2023-04-09T21:33:43.743Z,2.78
2023-04-09T21:36:11.284Z,2.58
2023-04-09T21:38:38.792Z,3.10
2023-04-09T21:41:06.307Z,3.00
2023-04-09T21:43:34.800Z,3.20
2023-04-09T21:46:03.195Z,2.83
2023-04-09T21:48:31.009Z,2.80
2023-04-09T21:50:58.769Z,2.60
2023-04-09T21:53:27.316Z,2.60
2023-04-09T21:55:54.676Z,2.40
2023-04-09T21:58:22.387Z,2.58
2023-04-09T22:00:49.780Z,2.22
2023-04-09T22:03:17.316Z,2.50
2023-04-09T22:05:44.850Z,2.40
2023-04-09T22:08:13.218Z,2.40
2023-04-09T22:10:40.640Z,2.22
2023-04-09T22:13:08.198Z,2.45
2023-04-09T22:15:35.674Z,2.40
2023-04-09T22:18:03.814Z,2.65
2023-04-09T22:20:31.282Z,2.10
2023-04-09T22:22:58.836Z,2.47
2023-04-09T22:25:26.197Z,2.47
2023-04-09T22:27:53.903Z,2.58
2023-04-09T22:30:22.029Z,2.15
2023-04-09T22:32:50.195Z,2.80
2023-04-09T22:35:18.481Z,3.10
2023-04-09T22:37:47.253Z,2.80
2023-04-09T22:40:16.125Z,2.60
2023-04-09T22:42:48.640Z,3.30
2023-04-09T22:45:16.256Z,3.10
2023-04-09T22:47:43.778Z,3.03
2023-04-09T22:50:11.780Z,3.60
2023-04-09T22:52:39.206Z,3.60
2023-04-09T22:55:10.252Z,3.28
2023-04-09T22:57:38.517Z,2.97
2023-04-09T23:00:06.700Z,2.83
2023-04-09T23:02:34.336Z,3.08
2023-04-09T23:05:02.598Z,2.97
2023-04-09T23:07:30.210Z,2.75
2023-04-09T23:09:57.600Z,3.40
2023-04-09T23:12:24.997Z,2.65
2023-04-09T23:14:54.031Z,2.85
2023-04-09T23:17:22.912Z,2.72
2023-04-09T23:19:52.696Z,3.10
2023-04-09T23:22:20.134Z,3.03
2023-04-09T23:24:47.479Z,3.00
2023-04-09T23:27:14.995Z,2.67
2023-04-09T23:29:42.512Z,2.90
2023-04-09T23:32:10.146Z,3.00
2023-04-09T23:34:37.589Z,2.85
2023-04-09T23:37:04.916Z,2.63
2023-04-09T23:39:32.242Z,3.20
2023-04-09T23:41:59.700Z,3.05
2023-04-09T23:44:27.394Z,2.70
2023-04-09T23:46:54.845Z,2.65
2023-04-09T23:49:22.836Z,2.58
2023-04-09T23:51:51.582Z,3.13
2023-04-09T23:54:19.027Z,2.92
2023-04-09T23:56:47.040Z,3.67
2023-04-09T23:59:14.565Z,3.25
